Time;durP1;ratioP1;P1;durP2;ratioP2;P2;SDS_P1;SDS_P2;PMS_P1;PMS_P2;Temp;Humidity;BMP_temperature;BMP_pressure;BME280_temperature;BME280_humidity;BME280_pressure;Samples;Min_cycle;Max_cycle;Signal;HPM_P1;HPM_P2
2022/11/01 00:02:07;;;;;;;7.18;4.13;;;;;;;17.86;57.41;99361.81;4990606;28;20059;-62
2022/11/01 00:04:35;;;;;;;7.72;3.90;;;;;;;17.89;57.28;99356.16;4990165;28;20593;-60
2022/11/01 00:07:02;;;;;;;7.82;3.88;;;;;;;17.93;57.08;99357.56;4990289;28;20085;-60
2022/11/01 00:09:28;;;;;;;6.38;3.38;;;;;;;17.95;57.14;99348.44;4990316;28;20062;-60
2022/11/01 00:11:56;;;;;;;7.45;3.75;;;;;;;17.99;56.89;99354.31;4991727;28;20140;-61
2022/11/01 00:14:22;;;;;;;7.13;4.03;;;;;;;18.03;56.67;99346.88;4990313;28;20082;-60
2022/11/01 00:16:49;;;;;;;9.27;3.55;;;;;;;18.05;56.54;99344.91;4990019;28;20050;-60
2022/11/01 00:19:17;;;;;;;9.23;3.80;;;;;;;18.07;56.50;99351.78;4990073;28;20057;-61
2022/11/01 00:21:43;;;;;;;8.05;3.75;;;;;;;18.12;56.28;99350.53;4990446;28;20050;-59
2022/11/01 00:24:10;;;;;;;9.45;4.07;;;;;;;18.13;56.42;99344.22;4991466;28;20050;-61
2022/11/01 00:26:37;;;;;;;7.68;4.28;;;;;;;18.15;56.17;99347.56;4992546;28;20568;-59
2022/11/01 00:29:04;;;;;;;9.52;4.20;;;;;;;18.17;56.46;99342.94;4995066;28;20121;-61
2022/11/01 00:31:31;;;;;;;8.93;4.10;;;;;;;18.18;56.20;99344.59;4994864;28;20510;-61
2022/11/01 00:34:02;;;;;;;5.75;3.30;;;;;;;18.21;56.04;99346.97;4993686;28;20062;-60
2022/11/01 00:36:29;;;;;;;6.78;3.70;;;;;;;18.21;56.14;99337.16;4993732;28;20081;-61
2022/11/01 00:38:56;;;;;;;6.63;3.90;;;;;;;18.23;55.89;99339.66;4993634;28;20054;-60
2022/11/01 00:41:22;;;;;;;8.73;3.65;;;;;;;18.24;55.90;99333.34;4993770;28;20502;-60
2022/11/01 00:43:50;;;;;;;10.82;3.80;;;;;;;18.25;55.93;99337.72;4993590;28;20085;-62
2022/11/01 00:46:17;;;;;;;6.28;3.63;;;;;;;18.26;55.81;99338.53;4994457;28;20112;-62
2022/11/01 00:48:44;;;;;;;7.00;3.75;;;;;;;18.27;55.62;99343.72;4994930;28;20389;-59
2022/11/01 00:51:11;;;;;;;7.43;3.85;;;;;;;18.28;55.83;99332.06;4993722;28;20539;-60
2022/11/01 00:53:38;;;;;;;8.98;3.85;;;;;;;18.30;55.86;99337.25;4993414;28;20426;-61
2022/11/01 00:56:05;;;;;;;10.48;3.70;;;;;;;18.32;55.68;99337.97;4993178;28;20435;-59
2022/11/01 00:58:32;;;;;;;14.13;4.15;;;;;;;18.32;55.53;99335.28;4993136;28;20418;-61
2022/11/01 01:00:59;;;;;;;8.52;4.05;;;;;;;18.33;55.55;99324.50;4994584;28;20133;-60
2022/11/01 01:03:26;;;;;;;7.53;4.00;;;;;;;18.36;55.55;99332.16;4994513;28;20046;-61
2022/11/01 01:05:54;;;;;;;7.90;3.90;;;;;;;18.38;55.60;99334.69;4992866;28;20058;-61
2022/11/01 01:08:23;;;;;;;8.10;4.25;;;;;;;18.40;55.68;99319.41;4994119;28;20392;-60
2022/11/01 01:10:50;;;;;;;9.35;4.03;;;;;;;18.45;55.36;99321.59;4992935;28;20054;-60
2022/11/01 01:13:17;;;;;;;7.97;4.15;;;;;;;18.44;55.19;99312.78;4994349;28;20068;-60
2022/11/01 01:15:44;;;;;;;6.75;4.05;;;;;;;18.47;55.17;99314.31;4993833;28;20058;-61
2022/11/01 01:18:12;;;;;;;9.48;3.55;;;;;;;18.48;55.51;99314.16;4994294;28;20087;-60
2022/11/01 01:20:38;;;;;;;8.95;4.38;;;;;;;18.49;55.33;99314.97;4992916;28;20058;-60
2022/11/01 01:23:05;;;;;;;6.40;3.60;;;;;;;18.51;55.54;99296.19;4992918;28;20051;-61
2022/11/01 01:25:32;;;;;;;9.55;4.25;;;;;;;18.51;55.31;99297.03;4993736;28;20047;-60
2022/11/01 01:27:59;;;;;;;8.73;3.75;;;;;;;18.52;55.08;99285.38;4993503;28;20050;-62
2022/11/01 01:30:27;;;;;;;8.45;4.00;;;;;;;18.53;55.09;99276.38;4992666;28;20050;-60
2022/11/01 01:32:54;;;;;;;7.05;3.92;;;;;;;18.54;55.46;99275.38;4993908;28;20053;-61
2022/11/01 01:35:22;;;;;;;10.98;4.00;;;;;;;18.55;55.17;99268.25;4992196;28;20085;-60
2022/11/01 01:37:49;;;;;;;9.05;4.18;;;;;;;18.55;55.07;99261.09;4993319;28;20058;-61
2022/11/01 01:40:16;;;;;;;8.48;3.88;;;;;;;18.56;55.40;99260.09;4992484;28;20064;-61
2022/11/01 01:42:42;;;;;;;6.72;3.70;;;;;;;18.57;55.23;99259.09;4992539;28;20403;-59
2022/11/01 01:45:28;;;;;;;7.93;3.72;;;;;;;18.55;54.97;99257.56;4993693;28;20054;-60
2022/11/01 01:48:05;;;;;;;7.72;3.75;;;;;;;18.56;54.96;99254.78;4992553;28;20046;-60
2022/11/01 01:50:38;;;;;;;8.55;4.15;;;;;;;18.56;55.09;99249.44;4992580;28;20050;-61
2022/11/01 01:53:19;;;;;;;9.13;3.95;;;;;;;18.57;54.77;99248.44;4992084;28;20491;-60
2022/11/01 01:55:59;;;;;;;7.82;3.85;;;;;;;18.53;54.90;99241.72;4994141;28;20162;-63
2022/11/01 01:58:30;;;;;;;8.60;4.20;;;;;;;18.55;55.05;99237.09;5015136;28;20092;-61
2022/11/01 02:00:57;;;;;;;9.00;4.05;;;;;;;18.55;54.95;99237.09;4993484;28;20062;-62
2022/11/01 02:03:31;;;;;;;7.60;4.30;;;;;;;18.53;54.83;99238.22;4996296;28;20045;-60
2022/11/01 02:06:11;;;;;;;10.27;3.97;;;;;;;18.48;55.10;99239.53;4977007;28;20054;-61
2022/11/01 02:08:42;;;;;;;10.82;4.07;;;;;;;18.49;54.91;99235.03;4975905;28;20506;-60
2022/11/01 02:11:10;;;;;;;10.18;4.28;;;;;;;18.49;55.23;99227.03;4975718;28;20056;-60
2022/11/01 02:13:37;;;;;;;13.45;3.90;;;;;;;18.48;55.25;99222.72;4992979;28;20071;-61
2022/11/01 02:16:19;;;;;;;10.70;4.00;;;;;;;18.44;55.25;99221.34;4975489;28;20050;-60
2022/11/01 02:19:11;;;;;;;7.05;3.40;;;;;;;18.41;55.07;99227.81;4993189;28;20046;-60
2022/11/01 02:22:02;;;;;;;8.98;3.95;;;;;;;18.41;55.23;99229.63;4975332;28;20050;-62
2022/11/01 02:24:54;;;;;;;7.82;3.70;;;;;;;18.41;55.05;99226.97;4975666;28;20061;-61
2022/11/01 02:27:33;;;;;;;9.45;3.97;;;;;;;18.42;54.72;99228.63;4975238;28;20513;-60
2022/11/01 02:30:00;;;;;;;6.53;3.85;;;;;;;18.46;55.09;99224.66;4992892;28;20419;-60
2022/11/01 02:32:51;;;;;;;11.65;4.45;;;;;;;18.40;54.96;99225.28;4975140;28;20046;-60
2022/11/01 02:35:27;;;;;;;8.82;3.80;;;;;;;18.44;55.04;99210.69;4975269;28;20050;-61
2022/11/01 02:38:05;;;;;;;10.88;3.88;;;;;;;18.40;55.08;99214.63;4975009;28;20056;-61
2022/11/01 02:40:56;;;;;;;11.75;4.40;;;;;;;18.39;54.85;99220.97;4975189;28;20061;-60
2022/11/01 02:43:30;;;;;;;10.20;3.63;;;;;;;18.36;54.97;99220.25;4992973;28;20499;-61
2022/11/01 02:46:59;;;;;;;7.93;3.80;;;;;;;18.36;54.96;99212.25;4989677;28;20048;-60
2022/11/01 02:48:48;;;;;;;6.80;3.67;;;;;;;18.36;55.29;99222.09;5030423;28;20403;-60
2022/11/01 02:51:17;;;;;;;12.98;4.50;;;;;;;18.33;55.17;99225.91;5014073;28;20053;-60
2022/11/01 02:53:44;;;;;;;9.48;3.80;;;;;;;18.33;55.24;99220.59;5031992;28;20053;-61
2022/11/01 02:56:11;;;;;;;7.80;3.80;;;;;;;18.34;55.25;99224.06;5021292;28;20067;-59
2022/11/01 02:58:39;;;;;;;8.93;4.00;;;;;;;18.32;55.25;99213.56;5011608;28;20054;-60
2022/11/01 03:01:14;;;;;;;8.40;4.50;;;;;;;18.31;55.32;99203.03;5003312;28;20043;-63
2022/11/01 03:03:44;;;;;;;8.00;3.95;;;;;;;18.30;55.21;99212.88;4994041;28;20042;-59
2022/11/01 03:06:17;;;;;;;13.13;4.40;;;;;;;18.30;55.23;99212.88;4990432;28;20494;-61
2022/11/01 03:08:47;;;;;;;10.10;3.80;;;;;;;18.29;55.34;99208.53;4986562;28;20061;-60
2022/11/01 03:11:25;;;;;;;6.85;4.10;;;;;;;18.27;55.35;99213.19;5001024;28;20072;-60
2022/11/01 03:14:01;;;;;;;11.45;4.03;;;;;;;18.29;55.34;99210.38;5011301;28;20041;-59
2022/11/01 03:16:40;;;;;;;8.38;3.70;;;;;;;18.24;55.63;99221.47;4988129;28;20046;-60
2022/11/01 03:19:34;;;;;;;7.65;3.92;;;;;;;18.22;55.60;99215.47;4974989;28;20068;-60
2022/11/01 03:22:05;;;;;;;8.52;3.78;;;;;;;18.27;55.96;99221.16;4992118;28;20062;-60
2022/11/01 03:24:53;;;;;;;7.75;3.75;;;;;;;18.23;55.80;99217.13;4974767;28;20133;-60
2022/11/01 03:27:31;;;;;;;8.52;4.00;;;;;;;18.25;55.65;99219.66;4974165;28;20499;-60
2022/11/01 03:30:04;;;;;;;8.32;4.25;;;;;;;18.26;55.98;99221.31;4992102;28;20053;-61
2022/11/01 03:32:47;;;;;;;11.70;4.40;;;;;;;18.26;55.83;99224.81;5030454;28;20042;-59
2022/11/01 03:35:27;;;;;;;13.25;3.55;;;;;;;18.28;55.72;99220.16;5031228;28;20073;-61
2022/11/01 03:37:59;;;;;;;10.82;4.15;;;;;;;18.29;55.91;99216.53;5030878;28;20379;-61
2022/11/01 03:40:29;;;;;;;5.93;3.38;;;;;;;18.29;55.93;99221.88;5031522;28;20127;-59
2022/11/01 03:43:03;;;;;;;6.95;3.30;;;;;;;18.30;55.94;99215.53;5031206;28;20643;-60
2022/11/01 03:45:34;;;;;;;9.60;4.13;;;;;;;18.31;55.65;99219.88;5030940;28;20410;-61
2022/11/01 03:48:00;;;;;;;11.52;3.50;;;;;;;18.34;55.81;99222.25;5013551;28;20057;-61
2022/11/01 03:50:28;;;;;;;9.88;3.30;;;;;;;18.33;56.20;99223.25;5013538;28;20107;-62
2022/11/01 03:52:55;;;;;;;7.82;3.50;;;;;;;18.34;56.05;99216.91;5013095;28;20056;-60
2022/11/01 03:55:24;;;;;;;9.52;3.50;;;;;;;18.33;55.84;99223.25;5013339;28;20056;-59
2022/11/01 03:57:58;;;;;;;8.35;3.67;;;;;;;18.31;56.27;99211.03;5030654;28;20057;-61
2022/11/01 04:00:31;;;;;;;9.63;3.53;;;;;;;18.30;56.33;99214.69;5014980;28;20053;-60
2022/11/01 04:02:59;;;;;;;9.57;3.45;;;;;;;18.32;56.14;99224.22;5017323;28;20053;-60
2022/11/01 04:05:29;;;;;;;6.65;3.30;;;;;;;18.29;56.32;99218.34;5017089;28;20059;-60
2022/11/01 04:07:55;;;;;;;7.65;3.58;;;;;;;18.29;56.23;99216.53;5034309;28;20049;-60
2022/11/01 04:10:24;;;;;;;8.15;3.60;;;;;;;18.26;56.34;99219.50;5017068;28;20379;-60
2022/11/01 04:12:51;;;;;;;7.22;3.65;;;;;;;18.24;56.48;99218.78;5016750;28;20053;-60
2022/11/01 04:21:16;;;;;;;7.78;3.58;;;;;;;18.16;56.74;99229.38;5034277;28;20072;-60
2022/11/01 04:23:44;;;;;;;5.07;3.33;;;;;;;18.15;56.48;99230.34;5034502;28;20484;-62
2022/11/01 04:26:17;;;;;;;8.38;3.40;;;;;;;18.10;56.90;99233.47;5034071;28;20050;-60
2022/11/01 04:28:55;;;;;;;8.50;3.67;;;;;;;18.10;56.62;99231.63;5016685;28;20122;-60
2022/11/01 04:31:22;;;;;;;8.15;3.17;;;;;;;18.08;56.82;99233.63;5016922;28;20053;-62
2022/11/01 04:33:50;;;;;;;8.25;3.28;;;;;;;18.06;57.01;99232.91;5016831;28;20393;-61
2022/11/01 04:36:16;;;;;;;6.68;3.13;;;;;;;18.06;56.92;99229.41;5016419;28;20486;-60
2022/11/01 04:38:43;;;;;;;5.90;3.20;;;;;;;18.04;57.25;99236.69;5016817;28;20053;-60
2022/11/01 04:41:10;;;;;;;9.10;3.42;;;;;;;18.03;57.36;99233.22;5034296;28;20065;-62
2022/11/01 04:43:38;;;;;;;6.38;3.10;;;;;;;18.03;57.21;99240.34;5034122;28;20046;-60
2022/11/01 04:46:04;;;;;;;8.48;3.60;;;;;;;18.03;57.35;99240.34;5016574;28;20050;-60
2022/11/01 04:48:31;;;;;;;8.63;3.80;;;;;;;18.02;57.44;99244.84;5034251;28;20053;-60
2022/11/01 04:51:00;;;;;;;6.00;3.88;;;;;;;18.01;57.66;99237.03;5016471;28;20418;-59
2022/11/01 04:53:27;;;;;;;7.70;3.63;;;;;;;18.00;57.81;99241.50;5016275;28;20057;-62
2022/11/01 04:55:55;;;;;;;6.53;3.45;;;;;;;18.00;57.89;99240.63;5033693;28;20056;-60
2022/11/01 04:58:21;;;;;;;5.40;3.78;;;;;;;17.99;57.99;99253.13;5033820;28;20132;-61
2022/11/01 05:00:50;;;;;;;8.60;3.70;;;;;;;17.98;58.06;99248.78;5034111;28;20056;-62
2022/11/01 05:03:20;;;;;;;5.78;3.28;;;;;;;17.99;57.90;99250.47;5033704;28;20095;-60
2022/11/01 05:05:46;;;;;;;7.90;3.28;;;;;;;18.00;57.99;99261.94;5015931;28;20060;-61
2022/11/01 05:08:13;;;;;;;9.10;3.55;;;;;;;18.00;58.13;99251.28;5016021;28;20107;-60
2022/11/01 05:10:43;;;;;;;8.27;3.55;;;;;;;17.98;58.27;99251.44;5033507;28;20061;-60
2022/11/01 05:13:11;;;;;;;12.00;3.47;;;;;;;17.99;58.26;99253.13;5032978;28;20041;-60
2022/11/01 05:15:39;;;;;;;8.02;3.30;;;;;;;18.00;58.39;99256.63;5033549;28;20057;-60
2022/11/01 05:18:25;;;;;;;6.43;3.35;;;;;;;18.00;58.39;99257.47;5018585;28;20046;-59
2022/11/01 05:20:52;;;;;;;9.18;3.67;;;;;;;18.00;58.42;99257.47;5015476;28;20493;-60
2022/11/01 05:23:18;;;;;;;8.32;3.63;;;;;;;17.99;58.60;99261.13;5016034;28;20060;-60
2022/11/01 05:25:47;;;;;;;6.35;3.80;;;;;;;17.99;58.63;99255.81;5033095;28;20401;-60
2022/11/01 05:28:14;;;;;;;8.35;3.55;;;;;;;17.99;58.93;99255.81;5032962;28;20041;-60
2022/11/01 05:30:42;;;;;;;9.38;3.83;;;;;;;18.02;59.01;99254.66;5015628;28;20061;-60
2022/11/01 05:33:10;;;;;;;9.52;3.33;;;;;;;18.01;58.90;99256.47;5033226;28;20057;-60
2022/11/01 05:35:37;;;;;;;6.00;3.13;;;;;;;18.02;59.04;99266.13;5015382;28;20136;-60
2022/11/01 05:38:04;;;;;;;8.95;3.40;;;;;;;18.03;59.00;99265.16;5015389;28;20141;-63
2022/11/01 05:40:31;;;;;;;8.80;3.22;;;;;;;18.04;59.07;99277.50;5015765;28;20057;-60
2022/11/01 05:42:58;;;;;;;7.82;2.95;;;;;;;18.05;59.07;99265.03;5015734;28;20136;-61
2022/11/01 05:45:25;;;;;;;7.03;3.25;;;;;;;18.07;59.08;99274.53;5015306;28;20061;-60
2022/11/01 05:47:52;;;;;;;6.03;3.08;;;;;;;18.07;59.28;99277.19;5015301;28;20414;-60
2022/11/01 05:50:18;;;;;;;8.63;2.97;;;;;;;18.06;59.30;99272.84;5014951;28;20061;-61
2022/11/01 05:52:45;;;;;;;4.82;3.08;;;;;;;18.08;59.60;99273.59;5032777;28;20057;-60
2022/11/01 05:55:12;;;;;;;6.63;2.92;;;;;;;18.09;59.54;99296.56;5015224;28;20084;-61
2022/11/01 05:57:39;;;;;;;5.65;3.58;;;;;;;18.10;59.79;99286.75;5015030;28;20461;-61
2022/11/01 06:00:06;;;;;;;6.22;3.20;;;;;;;18.11;59.74;99288.41;5014740;28;20057;-60
2022/11/01 06:02:35;;;;;;;8.77;3.72;;;;;;;18.14;59.90;99287.28;5010386;28;20052;-62
2022/11/01 06:05:01;;;;;;;4.35;2.95;;;;;;;18.16;59.93;99293.31;5011721;28;20475;-60
2022/11/01 06:07:29;;;;;;;6.70;3.20;;;;;;;18.17;59.97;99293.13;4995624;28;20081;-60
2022/11/01 06:09:56;;;;;;;7.43;3.10;;;;;;;18.21;59.91;99296.38;4995021;28;20060;-61
2022/11/01 06:12:24;;;;;;;7.20;3.80;;;;;;;18.22;59.74;99306.88;4959973;28;20081;-60
2022/11/01 06:14:51;;;;;;;4.78;2.58;;;;;;;18.24;59.72;99301.38;4991494;28;20570;-63
2022/11/01 06:17:18;;;;;;;6.60;2.97;;;;;;;18.26;60.00;99304.75;4992018;28;20086;-63
2022/11/01 06:19:44;;;;;;;6.70;2.60;;;;;;;18.27;59.56;99301.09;4991810;28;20046;-59
2022/11/01 06:22:11;;;;;;;8.50;2.78;;;;;;;18.27;59.75;99306.41;4991859;28;20058;-61
2022/11/01 06:24:38;;;;;;;4.70;3.42;;;;;;;18.29;59.73;99311.59;4990872;28;20415;-59
2022/11/01 06:29:36;;;;;;;10.50;3.17;;;;;;;18.28;59.58;99324.06;4968847;23;20055;-58
2022/11/01 06:32:03;;;;;;;10.18;3.00;;;;;;;18.29;59.97;99340.91;4967471;28;20131;-63
2022/11/01 06:34:30;;;;;;;5.53;3.00;;;;;;;18.28;59.74;99334.72;4955985;28;20047;-60
2022/11/01 06:36:57;;;;;;;9.93;3.10;;;;;;;18.29;59.93;99338.25;4955521;28;20055;-60
2022/11/01 06:39:23;;;;;;;5.88;2.90;;;;;;;18.26;59.77;99343.84;4968996;28;20046;-60
2022/11/01 06:41:50;;;;;;;10.23;3.22;;;;;;;18.28;60.26;99336.56;4963095;28;20070;-61
2022/11/01 06:44:16;;;;;;;6.65;2.85;;;;;;;18.28;59.88;99348.03;4955798;28;20070;-62
2022/11/01 06:46:43;;;;;;;7.45;2.88;;;;;;;18.28;59.89;99350.72;4972690;28;20085;-61
2022/11/01 06:49:09;;;;;;;6.47;2.72;;;;;;;18.30;60.32;99362.06;4969425;28;20078;-60
2022/11/01 06:51:43;;;;;;;7.80;3.00;;;;;;;18.30;60.03;99367.41;4973045;28;20499;-62
2022/11/01 06:54:10;;;;;;;8.02;2.92;;;;;;;18.33;60.51;99376.94;4972968;28;20139;-62
2022/11/01 06:56:36;;;;;;;6.18;3.63;;;;;;;18.33;60.12;99377.78;4972664;28;20047;-61
2022/11/01 06:59:02;;;;;;;4.88;2.92;;;;;;;18.34;60.31;99392.78;4973101;28;20654;-60
2022/11/01 07:01:29;;;;;;;6.05;3.20;;;;;;;18.35;60.22;99389.13;4972919;28;20074;-61
2022/11/01 07:03:55;;;;;;;7.32;2.78;;;;;;;18.38;59.91;99397.81;4972848;28;20042;-60
2022/11/01 07:06:27;;;;;;;7.85;2.72;;;;;;;18.39;60.19;99402.97;4972606;28;20069;-61
2022/11/01 07:08:54;;;;;;;8.20;3.30;;;;;;;18.41;60.22;99413.50;4955844;28;20086;-61
2022/11/01 07:11:20;;;;;;;5.40;2.80;;;;;;;18.45;60.09;99420.19;4972809;28;20055;-61
2022/11/01 07:13:47;;;;;;;6.55;2.78;;;;;;;18.45;59.96;99421.06;4972759;28;20047;-60
2022/11/01 07:16:13;;;;;;;4.65;2.40;;;;;;;18.45;59.77;99428.19;4972293;28;20078;-60
2022/11/01 07:18:41;;;;;;;4.40;2.10;;;;;;;18.45;58.83;99428.19;4972891;28;20129;-60
2022/11/01 07:21:07;;;;;;;3.92;1.90;;;;;;;18.42;58.22;99428.47;4972640;28;20050;-61
2022/11/01 07:23:33;;;;;;;3.53;1.60;;;;;;;18.40;57.31;99433.97;4972782;28;20054;-61
2022/11/01 07:26:00;;;;;;;5.07;1.50;;;;;;;18.35;56.88;99437.06;4972445;28;20138;-60
2022/11/01 07:28:26;;;;;;;3.60;1.50;;;;;;;18.33;56.37;99451.53;4972536;28;20074;-61
2022/11/01 07:30:53;;;;;;;4.05;1.38;;;;;;;18.29;55.83;99463.47;4972513;28;20105;-61
2022/11/01 07:33:20;;;;;;;2.47;1.33;;;;;;;18.24;55.66;99471.88;4955061;28;20498;-61
2022/11/01 07:35:47;;;;;;;5.35;1.40;;;;;;;18.19;55.11;99458.16;4970809;28;20466;-60
2022/11/01 07:38:14;;;;;;;5.38;1.50;;;;;;;18.16;55.19;99471.78;4970867;28;20084;-60
2022/11/01 07:40:41;;;;;;;1.85;1.10;;;;;;;18.08;54.83;99486.66;4972385;28;20057;-60
2022/11/01 07:43:08;;;;;;;3.35;1.15;;;;;;;18.04;54.77;99481.72;4971692;28;20050;-61
2022/11/01 07:45:35;;;;;;;2.78;1.30;;;;;;;17.97;54.89;99505.41;4971368;28;20490;-60
2022/11/01 07:48:04;;;;;;;3.33;1.00;;;;;;;17.92;54.42;99497.00;4954805;28;20461;-60
2022/11/01 07:50:33;;;;;;;3.85;1.10;;;;;;;17.89;54.57;99499.94;4971224;28;20084;-61
2022/11/01 07:53:01;;;;;;;4.28;1.17;;;;;;;17.82;54.05;99497.00;4972101;28;20050;-60
2022/11/01 07:55:28;;;;;;;2.30;0.90;;;;;;;17.77;54.43;99507.25;4941619;29;20079;-60
2022/11/01 07:57:54;;;;;;;2.22;1.10;;;;;;;17.69;54.29;99516.75;4952860;29;20138;-59
2022/11/01 08:00:21;;;;;;;2.33;0.90;;;;;;;17.63;53.94;99522.66;4953080;29;20059;-59
2022/11/01 08:02:47;;;;;;;2.13;0.95;;;;;;;17.56;54.06;99522.38;4953142;29;20394;-60
2022/11/01 08:05:14;;;;;;;4.63;1.40;;;;;;;17.52;54.20;99526.28;4952526;29;20063;-60
2022/11/01 08:07:41;;;;;;;4.13;1.00;;;;;;;17.46;53.96;99521.53;4952807;29;20051;-61
2022/11/01 08:10:09;;;;;;;2.22;0.90;;;;;;;17.39;53.83;99526.56;4965997;28;20082;-61
2022/11/01 08:12:36;;;;;;;3.28;0.80;;;;;;;17.34;53.83;99523.47;4954673;28;20137;-59
2022/11/01 08:15:04;;;;;;;3.17;0.90;;;;;;;17.28;53.94;99529.34;4971005;28;20093;-61
2022/11/01 08:17:33;;;;;;;1.70;0.70;;;;;;;17.23;53.72;99531.56;4954839;28;20090;-60
2022/11/01 08:19:59;;;;;;;5.28;0.98;;;;;;;17.19;53.80;99546.94;4954990;28;20090;-60
2022/11/01 08:22:25;;;;;;;3.38;0.93;;;;;;;17.15;53.83;99540.22;4971690;28;20051;-61
2022/11/01 08:24:52;;;;;;;2.40;0.88;;;;;;;17.12;53.97;99548.47;4971658;28;20055;-62
2022/11/01 08:27:18;;;;;;;5.18;1.05;;;;;;;17.08;53.76;99542.56;4971926;28;20067;-61
2022/11/01 08:29:44;;;;;;;2.28;0.95;;;;;;;17.07;53.85;99551.53;4972127;28;20565;-61
2022/11/01 08:32:11;;;;;;;1.70;0.75;;;;;;;17.07;54.06;99548.88;4972115;28;20137;-60
2022/11/01 08:34:37;;;;;;;4.85;1.42;;;;;;;17.06;53.95;99550.72;4971784;28;20047;-60
2022/11/01 08:37:03;;;;;;;2.17;0.90;;;;;;;17.06;54.01;99561.34;4971769;28;20047;-61
2022/11/01 08:39:31;;;;;;;2.35;1.10;;;;;;;17.07;54.26;99570.16;4971785;28;20050;-61
2022/11/01 08:41:59;;;;;;;2.53;0.90;;;;;;;17.08;54.03;99565.69;4972170;28;20105;-60
2022/11/01 08:44:25;;;;;;;4.63;1.00;;;;;;;17.09;54.18;99575.34;4971856;28;20081;-60
2022/11/01 08:46:53;;;;;;;5.03;1.13;;;;;;;17.09;53.46;99575.34;4971803;28;20487;-60
2022/11/01 08:49:20;;;;;;;4.43;1.08;;;;;;;17.11;53.17;99576.03;4975399;28;20097;-61
2022/11/01 08:51:46;;;;;;;3.70;0.98;;;;;;;17.10;53.00;99588.50;4975442;28;20150;-60
2022/11/01 08:54:12;;;;;;;3.22;1.05;;;;;;;17.11;53.06;99586.66;4974512;28;20133;-59
2022/11/01 08:56:39;;;;;;;2.92;0.95;;;;;;;17.10;52.57;99591.16;4975148;28;20047;-60
2022/11/01 08:59:05;;;;;;;5.88;1.20;;;;;;;17.11;52.97;99584.84;4975157;28;20122;-61
2022/11/01 09:04:16;;;;;;;4.47;1.50;;;;;;;17.11;52.14;99597.31;4970351;23;20057;-61
2022/11/01 09:06:43;;;;;;;5.32;1.00;;;;;;;17.09;52.31;99588.63;5013033;28;20085;-61
2022/11/01 09:09:09;;;;;;;5.95;0.90;;;;;;;17.08;52.36;99587.78;5013673;28;20049;-61
2022/11/01 09:11:37;;;;;;;5.82;1.42;;;;;;;17.08;51.86;99603.72;4996659;28;20459;-62
2022/11/01 09:14:03;;;;;;;4.93;1.77;;;;;;;17.06;51.59;99606.56;5013657;28;20491;-59
2022/11/01 09:16:31;;;;;;;7.22;1.20;;;;;;;17.06;51.84;99603.03;5013922;28;20076;-58
2022/11/01 09:19:00;;;;;;;4.93;1.40;;;;;;;17.05;51.36;99599.53;5013833;28;20057;-59
2022/11/01 09:21:28;;;;;;;6.30;1.58;;;;;;;17.06;51.53;99616.34;5013806;28;20153;-63
2022/11/01 09:23:57;;;;;;;8.68;1.65;;;;;;;17.06;51.39;99614.53;4996697;28;20438;-61
2022/11/01 09:26:26;;;;;;;6.00;1.60;;;;;;;17.06;51.49;99611.88;5013286;28;20451;-61
2022/11/01 09:28:57;;;;;;;6.97;1.48;;;;;;;17.05;50.11;99622.63;5013820;28;20046;-61
2022/11/01 09:31:24;;;;;;;4.75;1.45;;;;;;;17.08;51.25;99633.00;5013430;28;20046;-61
2022/11/01 09:33:56;;;;;;;8.88;2.15;;;;;;;17.09;50.94;99631.19;5013510;28;20046;-60
2022/11/01 09:36:24;;;;;;;6.32;2.03;;;;;;;17.12;50.90;99620.28;5013293;28;20111;-61
2022/11/01 09:38:50;;;;;;;4.30;1.40;;;;;;;17.14;50.91;99663.53;5013342;28;20157;-60
2022/11/01 09:41:31;;;;;;;7.45;1.92;;;;;;;17.11;49.52;99651.34;5012065;28;20603;-58
2022/11/01 09:44:00;;;;;;;11.43;1.95;;;;;;;17.15;50.02;99636.81;4996105;28;20084;-61
2022/11/01 09:46:33;;;;;;;6.93;1.65;;;;;;;17.16;50.14;99656.28;4995514;28;20053;-59
2022/11/01 09:49:00;;;;;;;;;;;;;;;17.17;49.88;99649.97;5013943;28;20335;-58
2022/11/01 09:51:28;;;;;;;8.82;2.30;;;;;;;17.25;50.73;99647.50;5013021;28;20345;-59
2022/11/01 09:53:59;;;;;;;8.80;2.13;;;;;;;17.25;50.45;99647.50;5013333;28;20050;-60
2022/11/01 09:56:42;;;;;;;7.50;2.05;;;;;;;17.24;49.46;99655.59;5012731;28;20569;-60
2022/11/01 09:59:30;;;;;;;7.30;1.80;;;;;;;17.26;49.05;99656.31;4995509;28;20054;-64
2022/11/01 10:02:29;;;;;;;9.82;2.00;;;;;;;17.30;49.66;99661.22;5012995;28;20050;-62
2022/11/01 10:05:29;;;;;;;8.90;1.67;;;;;;;17.35;50.88;99666.16;5013043;28;20487;-61
2022/11/01 10:08:13;;;;;;;5.68;1.50;;;;;;;17.43;50.32;99676.13;5012979;28;20045;-61
2022/11/01 10:10:45;;;;;;;7.68;1.85;;;;;;;17.52;50.84;99688.63;5012422;28;20054;-62
2022/11/01 10:13:21;;;;;;;6.70;1.83;;;;;;;17.58;50.34;99684.59;5012888;28;20537;-58
2022/11/01 10:15:47;;;;;;;10.77;2.15;;;;;;;17.67;50.20;99694.41;5011829;28;20567;-59
2022/11/01 10:18:14;;;;;;;10.05;2.17;;;;;;;17.70;49.77;99691.50;5010980;28;20045;-59
2022/11/01 10:20:41;;;;;;;6.97;2.05;;;;;;;17.77;49.65;99697.13;5010307;28;20433;-61
2022/11/01 10:23:14;;;;;;;7.18;1.80;;;;;;;17.82;49.56;99694.88;5011564;28;20116;-61
2022/11/01 10:25:47;;;;;;;11.82;2.38;;;;;;;17.90;49.73;99691.53;5011197;28;20128;-59
2022/11/01 10:28:23;;;;;;;9.10;2.33;;;;;;;17.96;49.53;99698.13;5012234;28;20490;-58
2022/11/01 10:30:56;;;;;;;7.55;2.00;;;;;;;18.03;49.86;99693.94;5012618;28;20052;-58
2022/11/01 10:33:42;;;;;;;8.00;2.20;;;;;;;18.09;48.96;99698.75;5012057;28;20041;-61
2022/11/01 10:36:14;;;;;;;9.90;2.25;;;;;;;18.23;49.13;99696.66;4994830;28;20084;-62
2022/11/01 10:38:52;;;;;;;9.60;2.67;;;;;;;18.31;48.47;99709.28;4995047;28;20058;-60
2022/11/01 10:41:43;;;;;;;9.82;2.30;;;;;;;18.45;49.14;99702.69;4996938;28;20461;-61
2022/11/01 10:44:15;;;;;;;8.93;2.47;;;;;;;18.54;48.93;99699.19;5010191;28;20053;-60
2022/11/01 10:46:45;;;;;;;10.05;2.45;;;;;;;18.66;49.48;99705.22;5011872;28;20074;-61
2022/11/01 10:49:18;;;;;;;8.60;2.63;;;;;;;18.79;49.09;99699.59;5012443;28;20408;-60
2022/11/01 10:51:47;;;;;;;12.32;2.72;;;;;;;18.97;49.07;99704.19;5011939;28;20058;-61
2022/11/01 10:54:22;;;;;;;10.40;2.35;;;;;;;19.16;47.31;99707.81;5012387;28;20054;-61
2022/11/01 10:56:52;;;;;;;9.88;2.25;;;;;;;19.42;48.90;99709.84;5011815;28;20085;-61
2022/11/01 10:59:28;;;;;;;7.57;2.03;;;;;;;19.71;48.63;99714.22;4994357;28;20050;-58
2022/11/01 11:01:55;;;;;;;8.68;2.17;;;;;;;20.00;48.79;99713.25;5010507;28;20474;-60
2022/11/01 11:04:23;;;;;;;8.27;2.67;;;;;;;20.27;47.68;99719.53;5010395;28;20058;-59
2022/11/01 11:06:50;;;;;;;13.07;2.33;;;;;;;20.48;46.72;99707.72;4993547;28;20088;-60
2022/11/01 11:09:23;;;;;;;9.75;2.42;;;;;;;20.62;45.21;99711.66;5011511;28;20056;-60
2022/11/01 11:11:52;;;;;;;13.60;2.92;;;;;;;20.77;46.62;99712.78;4994257;28;20092;-62
2022/11/01 11:14:19;;;;;;;9.63;2.70;;;;;;;20.97;46.87;99707.25;5011445;28;20521;-59
2022/11/01 11:16:53;;;;;;;9.77;2.25;;;;;;;21.23;45.84;99719.81;4977879;28;20140;-61
2022/11/01 11:19:28;;;;;;;11.32;2.70;;;;;;;21.61;45.82;99717.66;5011498;28;20132;-60
2022/11/01 11:21:56;;;;;;;9.63;2.40;;;;;;;22.09;47.12;99708.31;5011020;28;20458;-59
2022/11/01 11:24:37;;;;;;;9.40;2.25;;;;;;;22.58;45.68;99714.78;5010271;28;20572;-60
2022/11/01 11:27:16;;;;;;;6.93;2.05;;;;;;;23.14;43.74;99712.19;5010152;28;20392;-60
2022/11/01 11:29:48;;;;;;;9.48;2.05;;;;;;;23.69;43.54;99711.53;4992947;28;20057;-62
2022/11/01 11:32:21;;;;;;;7.60;2.60;;;;;;;24.23;42.63;99709.09;5010447;28;20061;-61
2022/11/01 11:34:59;;;;;;;8.63;2.17;;;;;;;24.79;42.52;99721.44;5010145;28;20052;-60
2022/11/01 11:37:30;;;;;;;9.32;2.58;;;;;;;25.33;41.07;99712.34;4993407;28;20050;-59
2022/11/01 11:40:20;;;;;;;6.82;2.20;;;;;;;25.80;40.85;99709.47;5011274;28;20045;-61
2022/11/01 11:42:48;;;;;;;7.90;2.20;;;;;;;26.24;40.21;99714.91;5011142;28;20391;-60
2022/11/01 11:45:28;;;;;;;6.90;2.40;;;;;;;26.52;36.82;99716.88;5009433;28;20054;-59
2022/11/01 11:48:15;;;;;;;8.52;2.60;;;;;;;26.84;38.41;99717.34;5011584;28;20058;-60
2022/11/01 11:50:42;;;;;;;8.15;2.63;;;;;;;27.10;38.16;99713.19;4997542;28;20387;-60
2022/11/01 11:53:20;;;;;;;6.10;1.80;;;;;;;27.25;36.25;99710.38;5011250;28;20052;-60
2022/11/01 11:55:56;;;;;;;6.72;2.10;;;;;;;27.40;35.49;99712.94;4998757;28;20086;-59
2022/11/01 11:58:28;;;;;;;5.95;2.30;;;;;;;27.53;35.40;99716.75;4991768;28;20133;-59